Time;durP1;ratioP1;P1;durP2;ratioP2;P2;SDS_P1;SDS_P2;PMS_P1;PMS_P2;Temp;Humidity;BMP_temperature;BMP_pressure;BME280_temperature;BME280_humidity;BME280_pressure;Samples;Min_cycle;Max_cycle;Signal;HPM_P1;HPM_P2
2023/04/01 00:00:53;;;;;;;13.77;7.07;;;13.40;80.50;;;;;;6094152;23;20169;-76
2023/04/01 00:03:23;;;;;;;14.43;7.53;;;13.40;80.50;;;;;;6094758;23;20173;-74
2023/04/01 00:05:53;;;;;;;14.70;7.17;;;13.40;80.60;;;;;;6092042;23;20170;-74
2023/04/01 00:08:22;;;;;;;13.53;6.70;;;13.30;80.50;;;;;;6093693;23;20535;-74
2023/04/01 00:10:50;;;;;;;11.17;7.20;;;13.30;80.50;;;;;;6093627;23;20178;-75
2023/04/01 00:13:19;;;;;;;13.60;6.80;;;13.30;80.60;;;;;;6094289;23;20178;-74
2023/04/01 00:15:48;;;;;;;17.73;7.37;;;13.30;80.50;;;;;;6094700;23;20575;-74
2023/04/01 00:18:17;;;;;;;14.83;7.37;;;13.30;80.50;;;;;;6094190;23;20178;-74
2023/04/01 00:20:46;;;;;;;15.63;7.70;;;13.20;81.30;;;;;;6094450;23;20533;-74
2023/04/01 00:23:16;;;;;;;13.77;7.57;;;13.20;80.10;;;;;;6093518;23;20206;-74
2023/04/01 00:25:45;;;;;;;14.23;7.73;;;13.30;80.00;;;;;;6094381;23;20216;-75
2023/04/01 00:28:14;;;;;;;11.70;7.33;;;13.30;79.80;;;;;;6093139;23;20237;-74
2023/04/01 00:30:42;;;;;;;11.83;6.97;;;13.30;79.70;;;;;;6093448;23;20198;-74
2023/04/01 00:33:11;;;;;;;10.87;7.07;;;13.30;79.60;;;;;;6092637;23;20178;-74
2023/04/01 00:35:40;;;;;;;10.47;6.53;;;13.30;79.40;;;;;;6092217;23;20197;-75
2023/04/01 00:38:10;;;;;;;12.43;6.30;;;13.30;79.90;;;;;;6094123;23;20174;-75
2023/04/01 00:40:45;;;;;;;13.23;6.70;;;13.30;80.00;;;;;;6094233;23;20162;-73
2023/04/01 00:43:17;;;;;;;10.90;6.57;;;13.30;80.40;;;;;;6092612;23;20157;-74
2023/04/01 00:45:47;;;;;;;11.03;7.07;;;13.30;80.30;;;;;;6094043;23;20605;-74
2023/04/01 00:48:20;;;;;;;12.50;7.03;;;13.30;80.10;;;;;;6092776;23;20177;-74
2023/04/01 00:50:52;;;;;;;13.23;7.33;;;13.30;80.30;;;;;;6094340;23;20162;-74
2023/04/01 00:53:22;;;;;;;11.97;7.33;;;13.30;80.30;;;;;;6093199;23;20172;-74
2023/04/01 00:55:57;;;;;;;10.67;6.80;;;13.30;80.30;;;;;;6094338;23;20276;-74
2023/04/01 00:58:30;;;;;;;11.67;6.90;;;13.30;80.20;;;;;;6093707;23;20224;-74
2023/04/01 01:01:00;;;;;;;10.20;6.63;;;13.30;80.00;;;;;;6093608;23;20166;-75
2023/04/01 01:03:29;;;;;;;9.07;6.30;;;13.30;79.90;;;;;;6093923;23;20643;-74
2023/04/01 01:06:10;;;;;;;12.70;6.83;;;13.30;79.80;;;;;;6094382;23;20632;-74
2023/04/01 01:08:53;;;;;;;13.30;6.77;;;13.30;79.70;;;;;;6092558;23;20533;-74
2023/04/01 01:11:31;;;;;;;12.67;7.27;;;13.30;79.70;;;;;;6093230;23;20674;-74
2023/04/01 01:14:17;;;;;;;10.73;6.70;;;13.40;79.60;;;;;;6093591;23;20209;-74
2023/04/01 01:16:52;;;;;;;16.23;6.70;;;13.40;79.60;;;;;;6094599;23;20651;-74
2023/04/01 01:19:49;;;;;;;10.40;6.53;;;13.40;79.40;;;;;;6094323;23;20157;-75
2023/04/01 01:22:40;;;;;;;13.23;6.63;;;13.40;79.40;;;;;;6093918;23;20184;-74
2023/04/01 01:25:30;;;;;;;10.97;6.67;;;13.40;79.30;;;;;;6091275;23;20632;-74
2023/04/01 01:28:16;;;;;;;10.43;6.77;;;13.50;79.40;;;;;;6092354;23;20177;-74
2023/04/01 01:30:52;;;;;;;16.67;6.63;;;13.50;79.50;;;;;;6088400;23;20163;-75
2023/04/01 01:33:43;;;;;;;12.07;6.60;;;13.50;79.70;;;;;;6089342;23;20169;-74
2023/04/01 01:36:15;;;;;;;11.77;7.03;;;13.50;79.80;;;;;;6090038;23;20197;-74
2023/04/01 01:38:45;;;;;;;12.87;7.73;;;13.40;79.90;;;;;;6089283;23;20209;-74
2023/04/01 01:41:17;;;;;;;11.03;6.70;;;13.50;80.00;;;;;;6088685;23;20174;-74
2023/04/01 01:43:49;;;;;;;12.17;6.97;;;13.50;79.80;;;;;;6091887;23;20240;-74
2023/04/01 01:46:21;;;;;;;14.03;8.10;;;13.50;79.70;;;;;;6092467;23;20166;-74
2023/04/01 01:48:52;;;;;;;13.17;8.30;;;13.50;79.70;;;;;;6092185;23;20241;-74
2023/04/01 01:51:23;;;;;;;15.97;8.70;;;13.50;79.60;;;;;;6093552;23;20246;-74
2023/04/01 01:53:52;;;;;;;18.37;10.30;;;13.50;79.70;;;;;;6092903;23;20179;-74
2023/04/01 01:56:26;;;;;;;14.40;8.50;;;13.50;79.60;;;;;;6092733;23;20561;-74
2023/04/01 01:58:59;;;;;;;13.30;8.87;;;13.50;79.70;;;;;;6092719;23;20205;-74
2023/04/01 02:01:30;;;;;;;15.70;8.97;;;13.50;79.70;;;;;;6092683;23;20221;-74
2023/04/01 02:03:59;;;;;;;19.23;8.90;;;13.50;79.50;;;;;;6092188;23;20595;-74
2023/04/01 02:06:33;;;;;;;16.83;9.33;;;13.50;79.60;;;;;;6093819;23;20178;-74
2023/04/01 02:09:04;;;;;;;17.70;8.70;;;13.50;79.50;;;;;;6092176;23;20166;-74
2023/04/01 02:11:38;;;;;;;15.63;8.50;;;13.50;79.40;;;;;;6092269;23;20169;-75
2023/04/01 02:14:11;;;;;;;15.97;8.40;;;13.50;79.50;;;;;;6090577;23;20162;-74
2023/04/01 02:16:45;;;;;;;15.30;8.90;;;13.40;79.30;;;;;;6092738;23;20662;-75
2023/04/01 02:19:15;;;;;;;17.60;8.73;;;13.40;79.20;;;;;;6090743;23;20173;-74
2023/04/01 02:21:46;;;;;;;14.63;8.80;;;13.40;79.20;;;;;;6092746;23;20158;-73
2023/04/01 02:24:16;;;;;;;12.83;8.37;;;13.40;79.10;;;;;;6092543;23;20177;-74
2023/04/01 02:26:45;;;;;;;14.90;8.63;;;13.40;79.20;;;;;;6094350;23;20181;-74
2023/04/01 02:29:15;;;;;;;15.10;8.67;;;13.40;79.30;;;;;;6093196;23;20173;-74
2023/04/01 02:31:44;;;;;;;17.63;8.93;;;13.40;79.40;;;;;;6092847;23;20174;-74
2023/04/01 02:34:13;;;;;;;15.77;8.67;;;13.40;79.30;;;;;;6092706;23;20205;-74
2023/04/01 02:36:41;;;;;;;18.13;8.87;;;13.40;79.30;;;;;;6093305;23;20202;-74
2023/04/01 02:39:11;;;;;;;18.37;8.87;;;13.40;79.10;;;;;;6088748;23;20250;-74
2023/04/01 02:41:43;;;;;;;16.93;9.87;;;13.30;79.20;;;;;;6090126;23;20229;-74
2023/04/01 02:44:13;;;;;;;15.77;8.93;;;13.30;79.10;;;;;;6090923;23;20631;-74
2023/04/01 02:46:42;;;;;;;19.67;9.20;;;13.30;79.30;;;;;;6093726;23;20173;-74
2023/04/01 02:49:10;;;;;;;16.73;9.57;;;13.30;79.30;;;;;;6091966;23;20651;-74
2023/04/01 02:51:39;;;;;;;18.17;9.57;;;13.30;79.40;;;;;;6093016;23;20193;-75
2023/04/01 02:54:08;;;;;;;16.80;10.00;;;13.30;79.90;;;;;;6092637;23;20177;-74
2023/04/01 02:56:38;;;;;;;17.60;10.37;;;13.20;79.90;;;;;;6094434;23;20257;-74
2023/04/01 02:59:06;;;;;;;16.80;10.47;;;13.20;80.20;;;;;;6093848;23;20667;-74
2023/04/01 03:01:34;;;;;;;16.40;9.73;;;13.20;80.30;;;;;;6093693;23;20170;-74
2023/04/01 03:04:03;;;;;;;15.27;9.43;;;13.20;80.30;;;;;;6092960;23;20181;-74
2023/04/01 03:06:32;;;;;;;16.43;10.07;;;13.10;80.30;;;;;;6092956;23;20178;-74
2023/04/01 03:09:00;;;;;;;17.40;9.37;;;13.10;80.30;;;;;;6092864;23;20178;-74
2023/04/01 03:11:28;;;;;;;17.53;9.87;;;13.10;80.30;;;;;;6093185;23;20170;-74
2023/04/01 03:13:58;;;;;;;15.83;9.67;;;13.10;80.50;;;;;;6093557;23;20210;-74
2023/04/01 03:16:26;;;;;;;19.80;10.20;;;13.10;80.30;;;;;;6094270;23;20198;-74
2023/04/01 03:18:58;;;;;;;18.43;10.50;;;13.10;81.20;;;;;;6094258;23;20213;-74
2023/04/01 03:21:27;;;;;;;18.77;10.97;;;13.10;81.20;;;;;;6092722;23;20608;-75
2023/04/01 03:23:55;;;;;;;18.57;10.50;;;13.10;81.30;;;;;;6092687;23;20611;-74
2023/04/01 03:26:23;;;;;;;16.97;10.70;;;13.00;81.10;;;;;;6095287;23;20185;-74
2023/04/01 03:28:52;;;;;;;21.20;11.23;;;13.00;81.30;;;;;;6092194;23;20177;-73
2023/04/01 03:31:21;;;;;;;19.40;10.70;;;13.00;81.80;;;;;;6095571;23;20177;-74
2023/04/01 03:33:51;;;;;;;18.03;10.43;;;13.00;81.70;;;;;;6094116;23;20166;-73
2023/04/01 03:36:19;;;;;;;19.00;10.80;;;13.00;81.60;;;;;;6095937;23;20241;-74
2023/04/01 03:38:48;;;;;;;24.87;11.30;;;13.00;81.70;;;;;;6094987;23;20170;-74
2023/04/01 03:41:18;;;;;;;14.10;9.97;;;13.00;81.60;;;;;;6090083;23;20185;-74
2023/04/01 03:43:46;;;;;;;17.43;10.97;;;13.00;81.60;;;;;;6091490;23;20236;-73
2023/04/01 03:46:18;;;;;;;22.10;11.40;;;13.00;81.90;;;;;;6090848;23;20241;-74
2023/04/01 03:48:48;;;;;;;15.67;10.50;;;12.90;82.50;;;;;;6090934;23;20165;-74
2023/04/01 03:51:17;;;;;;;15.70;10.03;;;12.90;82.20;;;;;;6094300;23;20174;-74
2023/04/01 03:53:45;;;;;;;22.97;10.63;;;12.90;82.20;;;;;;6093664;23;20293;-74
2023/04/01 03:56:14;;;;;;;20.93;11.20;;;12.90;82.30;;;;;;6092793;23;20177;-74
2023/04/01 03:58:42;;;;;;;22.00;11.13;;;12.90;82.60;;;;;;6092799;23;20201;-74
2023/04/01 04:01:20;;;;;;;19.80;11.40;;;12.90;83.00;;;;;;6093951;23;20178;-74
2023/04/01 04:03:51;;;;;;;24.67;11.80;;;12.80;83.70;;;;;;6091080;23;20162;-74
2023/04/01 04:06:20;;;;;;;21.13;11.93;;;12.80;83.80;;;;;;6093906;23;20242;-73
2023/04/01 04:08:48;;;;;;;17.97;11.07;;;12.80;83.30;;;;;;6093937;23;20701;-74
2023/04/01 04:11:18;;;;;;;20.70;11.40;;;12.80;83.20;;;;;;6093719;23;20483;-74
2023/04/01 04:13:47;;;;;;;26.13;11.90;;;12.80;83.20;;;;;;6091578;23;20653;-75
2023/04/01 04:16:17;;;;;;;21.87;11.60;;;12.80;83.00;;;;;;6093736;23;20710;-74
2023/04/01 04:18:45;;;;;;;18.77;11.47;;;12.80;83.00;;;;;;6090898;23;20197;-74
2023/04/01 04:21:16;;;;;;;25.90;12.57;;;12.80;83.00;;;;;;6092385;23;20226;-74
2023/04/01 04:23:45;;;;;;;26.47;14.10;;;12.80;83.00;;;;;;6093989;23;20158;-73
2023/04/01 04:26:15;;;;;;;25.53;14.60;;;12.90;83.30;;;;;;6090548;23;20233;-74
2023/04/01 04:28:43;;;;;;;24.27;13.33;;;12.90;83.30;;;;;;6093027;23;20249;-74
2023/04/01 04:31:12;;;;;;;22.73;12.13;;;12.90;83.30;;;;;;6094238;23;20230;-74
2023/04/01 04:33:40;;;;;;;23.63;12.60;;;12.90;83.30;;;;;;6094001;23;20174;-74
2023/04/01 04:36:09;;;;;;;21.83;11.93;;;12.90;83.10;;;;;;6091880;23;20941;-74
2023/04/01 04:38:39;;;;;;;18.97;11.17;;;12.90;83.20;;;;;;6092270;23;20563;-74
2023/04/01 04:41:11;;;;;;;19.37;11.33;;;13.00;83.30;;;;;;6093957;23;20639;-74
2023/04/01 04:43:39;;;;;;;19.47;10.67;;;13.00;83.40;;;;;;6093737;23;20166;-74
2023/04/01 04:46:08;;;;;;;15.27;10.00;;;13.00;83.50;;;;;;6093844;23;20174;-74
2023/04/01 04:48:37;;;;;;;17.60;11.43;;;13.00;83.40;;;;;;6092395;23;20491;-74
2023/04/01 04:51:05;;;;;;;21.27;11.23;;;13.10;83.70;;;;;;6092445;23;20252;-74
2023/04/01 04:53:33;;;;;;;21.03;11.50;;;13.10;83.70;;;;;;6094288;23;20174;-74
2023/04/01 04:56:03;;;;;;;16.53;11.10;;;13.10;84.20;;;;;;6093905;23;20174;-75
2023/04/01 04:58:31;;;;;;;20.33;11.37;;;13.10;84.30;;;;;;6094038;23;20663;-74
2023/04/01 05:01:00;;;;;;;16.97;11.03;;;13.20;84.40;;;;;;6093112;23;20170;-74
2023/04/01 05:03:28;;;;;;;18.47;10.90;;;13.20;84.60;;;;;;6092915;23;20249;-74
2023/04/01 05:05:57;;;;;;;18.80;10.70;;;13.20;84.60;;;;;;6094354;23;20180;-74
2023/04/01 05:08:25;;;;;;;20.40;11.43;;;13.30;84.30;;;;;;6092314;23;20554;-74
2023/04/01 05:10:54;;;;;;;18.57;10.70;;;13.30;84.30;;;;;;6091210;23;20178;-74
2023/04/01 05:13:23;;;;;;;17.53;10.40;;;13.30;84.10;;;;;;6092802;23;20229;-74
2023/04/01 05:15:52;;;;;;;15.57;10.30;;;13.30;84.40;;;;;;6093788;23;20549;-74
2023/04/01 05:18:20;;;;;;;19.23;10.80;;;13.30;84.30;;;;;;6093337;23;20202;-74
2023/04/01 05:20:49;;;;;;;17.30;11.03;;;13.30;84.20;;;;;;6093488;23;20204;-74
2023/04/01 05:23:18;;;;;;;18.87;10.97;;;13.30;84.60;;;;;;6093336;23;20170;-74
2023/04/01 05:25:46;;;;;;;19.70;12.03;;;13.30;84.60;;;;;;6093390;23;20225;-74
2023/04/01 05:28:15;;;;;;;18.03;11.00;;;13.30;84.90;;;;;;6093600;23;20173;-74
2023/04/01 05:30:46;;;;;;;17.07;10.60;;;13.30;84.60;;;;;;6091393;23;20259;-73
2023/04/01 05:33:14;;;;;;;18.23;11.03;;;13.30;84.40;;;;;;6093680;23;20168;-74
2023/04/01 05:35:43;;;;;;;21.87;12.10;;;13.30;84.50;;;;;;6093938;23;20181;-74
2023/04/01 05:38:11;;;;;;;23.07;11.87;;;13.30;85.00;;;;;;6094611;23;20197;-74
2023/04/01 05:40:39;;;;;;;21.97;12.33;;;13.40;84.90;;;;;;6095062;23;20233;-77
2023/04/01 05:43:08;;;;;;;19.87;12.20;;;13.30;84.90;;;;;;6091905;23;20170;-74
2023/04/01 05:45:36;;;;;;;20.33;12.07;;;13.40;84.90;;;;;;6093310;23;20181;-74
2023/04/01 05:48:06;;;;;;;23.37;12.73;;;13.40;85.00;;;;;;6091735;23;20182;-74
2023/04/01 05:50:34;;;;;;;19.43;12.13;;;13.40;84.80;;;;;;6093639;23;20166;-74
2023/04/01 05:53:03;;;;;;;17.93;11.70;;;13.40;84.70;;;;;;6092119;23;20174;-74
2023/04/01 05:55:31;;;;;;;19.40;12.23;;;13.40;84.60;;;;;;6092220;23;20489;-74
2023/04/01 05:58:00;;;;;;;22.53;12.27;;;13.50;84.80;;;;;;6092185;23;20205;-74
2023/04/01 06:00:28;;;;;;;19.73;11.23;;;13.50;84.70;;;;;;6094385;23;20223;-74
2023/04/01 06:02:59;;;;;;;20.73;11.60;;;13.60;85.00;;;;;;6094391;23;20690;-74
2023/04/01 06:05:31;;;;;;;21.60;12.07;;;13.60;85.10;;;;;;6091527;23;20174;-75
2023/04/01 06:08:02;;;;;;;23.03;13.07;;;13.60;84.90;;;;;;6088789;23;20215;-75
2023/04/01 06:10:44;;;;;;;24.63;13.23;;;13.70;85.00;;;;;;6093385;23;20604;-74
2023/04/01 06:13:21;;;;;;;24.03;13.93;;;13.70;84.80;;;;;;6098281;23;20169;-74
2023/04/01 06:15:58;;;;;;;18.03;11.77;;;13.70;84.70;;;;;;6094941;23;20190;-74
2023/04/01 06:19:00;;;;;;;21.27;12.13;;;13.80;84.70;;;;;;6092772;23;20198;-74
2023/04/01 06:21:55;;;;;;;23.40;12.27;;;13.80;84.60;;;;;;6095557;23;20176;-74
2023/04/01 06:24:45;;;;;;;16.70;11.23;;;13.80;84.70;;;;;;6096126;23;20203;-74
2023/04/01 06:27:31;;;;;;;20.53;11.20;;;13.90;84.70;;;;;;6095256;23;20162;-73
2023/04/01 06:30:11;;;;;;;22.07;11.77;;;13.90;84.60;;;;;;6096244;23;20168;-74
2023/04/01 06:33:02;;;;;;;19.63;11.50;;;14.00;84.80;;;;;;6092860;23;20221;-74
2023/04/01 06:35:46;;;;;;;18.67;11.33;;;14.00;84.80;;;;;;6095301;23;20162;-74
2023/04/01 06:38:47;;;;;;;22.27;11.53;;;14.10;84.80;;;;;;6094581;23;20196;-74
2023/04/01 06:41:53;;;;;;;19.47;11.50;;;14.20;84.80;;;;;;6095428;23;20216;-74
2023/04/01 06:44:29;;;;;;;21.13;11.77;;;14.20;84.70;;;;;;6095769;23;20166;-74
2023/04/01 06:47:03;;;;;;;18.87;11.53;;;14.30;84.70;;;;;;6092721;23;20165;-73
2023/04/01 06:49:45;;;;;;;22.23;11.90;;;14.40;84.70;;;;;;6092420;23;20169;-74
2023/04/01 06:52:20;;;;;;;19.13;11.43;;;14.50;84.70;;;;;;6093509;23;20462;-74
2023/04/01 06:54:56;;;;;;;18.40;10.70;;;14.60;84.70;;;;;;6089184;23;20622;-73
2023/04/01 06:57:33;;;;;;;21.60;12.83;;;14.60;84.60;;;;;;6093183;23;20166;-74
2023/04/01 07:00:04;;;;;;;29.27;11.60;;;14.80;84.40;;;;;;6094188;23;20197;-74
2023/04/01 07:02:38;;;;;;;26.40;12.07;;;14.90;84.30;;;;;;6095804;23;20462;-74
2023/04/01 07:05:10;;;;;;;18.50;10.60;;;15.00;84.00;;;;;;6093056;23;20189;-74
2023/04/01 07:07:43;;;;;;;19.40;11.13;;;15.10;83.70;;;;;;6093464;23;20164;-74
2023/04/01 07:10:18;;;;;;;18.20;11.50;;;15.10;83.40;;;;;;6095510;23;20734;-75
2023/04/01 07:12:50;;;;;;;17.17;10.90;;;15.20;83.20;;;;;;6094967;23;20216;-74
2023/04/01 07:15:24;;;;;;;17.60;10.47;;;15.20;83.00;;;;;;6096476;23;20213;-75
2023/04/01 07:17:56;;;;;;;24.83;11.30;;;15.30;82.90;;;;;;6095654;23;20217;-74
2023/04/01 07:20:29;;;;;;;16.73;10.40;;;15.30;82.70;;;;;;6094003;23;20162;-74
2023/04/01 07:23:00;;;;;;;21.50;11.40;;;15.40;82.70;;;;;;6097357;23;20210;-73
2023/04/01 07:25:34;;;;;;;19.57;11.30;;;15.40;82.60;;;;;;6095294;23;20165;-74
2023/04/01 07:28:05;;;;;;;17.50;11.27;;;15.50;82.60;;;;;;6094848;23;20627;-74
2023/04/01 07:30:45;;;;;;;24.80;12.17;;;15.50;82.50;;;;;;6095112;23;20250;-74
2023/04/01 07:33:20;;;;;;;25.87;11.70;;;15.50;82.30;;;;;;6094963;23;20690;-74
2023/04/01 07:35:55;;;;;;;19.13;11.50;;;15.60;82.30;;;;;;6095148;23;20165;-74
2023/04/01 07:38:31;;;;;;;21.77;11.73;;;15.60;82.20;;;;;;6097128;23;20216;-74
2023/04/01 07:41:11;;;;;;;18.50;12.53;;;15.60;82.00;;;;;;6095923;23;20229;-74
2023/04/01 07:43:52;;;;;;;22.30;13.30;;;15.70;82.00;;;;;;6096928;23;20197;-74
2023/04/01 07:46:40;;;;;;;23.30;12.33;;;15.70;81.80;;;;;;6092623;23;20539;-74
2023/04/01 07:49:14;;;;;;;23.53;13.87;;;15.70;81.70;;;;;;6096701;23;20181;-73
2023/04/01 07:51:53;;;;;;;26.20;14.83;;;15.80;81.60;;;;;;6095580;23;20158;-74
2023/04/01 07:54:27;;;;;;;25.40;14.30;;;15.90;81.50;;;;;;6094729;23;20166;-75
2023/04/01 07:57:04;;;;;;;25.67;14.90;;;15.90;81.40;;;;;;6092005;23;20166;-74
2023/04/01 07:59:44;;;;;;;27.97;16.20;;;16.00;81.40;;;;;;6092924;23;20244;-76
2023/04/01 08:02:29;;;;;;;22.70;14.77;;;16.00;81.60;;;;;;6096274;23;20162;-74
2023/04/01 08:05:08;;;;;;;33.33;17.87;;;16.10;81.40;;;;;;6095239;23;20254;-74
2023/04/01 08:07:44;;;;;;;29.47;15.90;;;16.10;81.30;;;;;;6095136;23;20177;-74
2023/04/01 08:10:19;;;;;;;25.07;14.90;;;16.20;81.20;;;;;;6091933;23;20209;-73
2023/04/01 08:13:03;;;;;;;23.03;15.07;;;16.30;81.20;;;;;;6095258;23;20484;-75
2023/04/01 08:15:39;;;;;;;26.37;15.40;;;16.40;81.30;;;;;;6094683;23;20162;-75
2023/04/01 08:18:21;;;;;;;22.37;13.43;;;16.40;81.30;;;;;;6096216;23;20165;-76
2023/04/01 08:20:53;;;;;;;25.07;13.87;;;16.50;81.30;;;;;;6095916;23;20186;-75
2023/04/01 08:23:26;;;;;;;22.30;14.13;;;16.50;81.10;;;;;;6095117;23;20173;-75
2023/04/01 08:25:59;;;;;;;25.90;14.73;;;16.60;81.10;;;;;;6096614;23;20627;-75
2023/04/01 08:28:35;;;;;;;25.17;14.33;;;16.60;81.10;;;;;;6096451;23;20166;-75
2023/04/01 08:31:07;;;;;;;26.53;15.07;;;16.60;81.00;;;;;;6092878;23;20562;-75
2023/04/01 08:33:37;;;;;;;21.33;14.10;;;16.60;80.90;;;;;;6093452;23;20227;-76
2023/04/01 08:36:10;;;;;;;28.87;15.27;;;16.70;80.80;;;;;;6094393;23;20174;-77
2023/04/01 08:38:43;;;;;;;29.07;14.67;;;16.70;80.60;;;;;;6092952;23;20221;-77
2023/04/01 08:41:35;;;;;;;26.67;15.37;;;16.70;80.50;;;;;;6092360;23;20164;-76
2023/04/01 08:44:42;;;;;;;28.87;14.80;;;16.70;80.50;;;;;;6095282;23;20218;-77
2023/04/01 08:47:51;;;;;;;26.27;15.10;;;16.80;80.40;;;;;;6059878;23;20233;-77
2023/04/01 08:50:42;;;;;;;25.47;15.43;;;16.80;80.30;;;;;;6094773;23;20182;-78
2023/04/01 08:53:17;;;;;;;28.37;15.87;;;16.80;80.40;;;;;;6093990;23;20619;-77
2023/04/01 08:55:57;;;;;;;29.43;16.17;;;16.80;80.40;;;;;;6094643;23;20165;-76
2023/04/01 08:59:16;;;;;;;31.00;16.00;;;16.80;80.40;;;;;;6092451;23;20202;-77
2023/04/01 09:02:10;;;;;;;30.17;17.10;;;16.70;80.80;;;;;;6004382;23;20176;-76
2023/04/01 09:05:02;;;;;;;25.77;16.30;;;16.70;80.80;;;;;;6093216;23;20248;-77
2023/04/01 09:07:42;;;;;;;25.50;15.87;;;16.60;81.10;;;;;;6092131;23;20496;-77
2023/04/01 09:10:41;;;;;;;26.00;15.83;;;16.60;81.00;;;;;;6092344;23;20158;-77
2023/04/01 09:13:30;;;;;;;26.10;15.50;;;16.60;81.00;;;;;;6090334;23;20166;-75
2023/04/01 09:16:25;;;;;;;27.07;15.07;;;16.50;81.00;;;;;;6095745;23;20213;-75
2023/04/01 09:19:10;;;;;;;27.67;15.30;;;16.50;81.10;;;;;;6095772;23;20217;-76
2023/04/01 09:22:23;;;;;;;20.97;13.03;;;16.50;81.40;;;;;;6095341;23;20189;-75
2023/04/01 09:25:15;;;;;;;19.97;12.73;;;16.40;81.40;;;;;;6084756;23;20699;-75
2023/04/01 09:27:49;;;;;;;22.83;13.03;;;16.50;81.50;;;;;;6097196;23;20555;-75
2023/04/01 09:31:00;;;;;;;27.90;13.87;;;16.50;81.40;;;;;;6094701;23;20194;-76
2023/04/01 09:34:02;;;;;;;24.13;14.13;;;16.60;81.50;;;;;;6093813;23;20170;-76
2023/04/01 09:36:46;;;;;;;23.53;14.53;;;16.60;81.50;;;;;;6091851;23;20678;-76
2023/04/01 09:39:37;;;;;;;27.80;14.87;;;16.70;81.60;;;;;;6093017;23;20217;-76
2023/04/01 09:42:42;;;;;;;25.13;14.40;;;16.80;81.80;;;;;;6093349;23;20257;-75
2023/04/01 09:45:22;;;;;;;23.50;12.67;;;16.90;81.90;;;;;;6094849;23;20174;-77
2023/04/01 09:48:04;;;;;;;22.07;12.73;;;16.90;81.80;;;;;;6095054;23;20535;-75
2023/04/01 09:50:43;;;;;;;23.37;13.63;;;17.00;81.90;;;;;;6093943;23;20189;-75
2023/04/01 09:53:21;;;;;;;18.57;12.00;;;17.00;81.80;;;;;;6094156;23;20198;-76
2023/04/01 09:56:42;;;;;;;21.33;13.03;;;17.00;81.70;;;;;;6094368;23;20567;-76
2023/04/01 09:59:47;;;;;;;22.73;12.20;;;17.00;81.60;;;;;;6095106;23;20197;-76
2023/04/01 10:02:48;;;;;;;19.20;11.70;;;17.00;81.90;;;;;;6095636;23;20161;-76
2023/04/01 10:05:49;;;;;;;20.13;11.40;;;17.10;81.90;;;;;;6095019;23;20215;-76
2023/04/01 10:08:38;;;;;;;16.57;10.37;;;17.20;82.10;;;;;;6094545;23;20201;-75
2023/04/01 10:11:28;;;;;;;18.97;10.83;;;17.20;81.60;;;;;;6094414;23;20162;-75
2023/04/01 10:14:35;;;;;;;16.23;11.43;;;17.30;80.40;;;;;;6093380;23;20166;-75
2023/04/01 10:17:47;;;;;;;20.97;11.00;;;17.30;79.70;;;;;;6073771;23;20229;-74
2023/04/01 10:20:51;;;;;;;20.53;11.73;;;17.30;79.70;;;;;;6093764;23;20185;-73
2023/04/01 10:23:31;;;;;;;17.13;10.70;;;17.40;78.90;;;;;;6093946;23;20162;-74
2023/04/01 10:26:19;;;;;;;14.87;10.03;;;17.50;78.80;;;;;;6093503;23;20165;-76
2023/04/01 10:29:38;;;;;;;17.67;9.33;;;17.50;78.30;;;;;;6096040;23;20162;-74
2023/04/01 10:32:31;;;;;;;16.10;9.57;;;17.60;78.20;;;;;;6032953;23;20233;-76
2023/04/01 10:35:34;;;;;;;16.33;9.67;;;17.60;77.00;;;;;;6088975;23;20243;-76
2023/04/01 10:38:36;;;;;;;21.85;11.32;;;17.60;76.20;;;;;;6088942;23;20390;-75
2023/04/01 10:41:50;;;;;;;21.00;11.77;;;17.70;76.40;;;;;;6091653;23;20709;-75
2023/04/01 10:44:50;;;;;;;16.13;10.77;;;17.90;76.60;;;;;;6049766;23;20185;-75
2023/04/01 10:47:45;;;;;;;16.83;9.07;;;18.10;75.60;;;;;;6090821;23;20582;-76
2023/04/01 10:50:39;;;;;;;14.70;9.20;;;18.30;74.70;;;;;;6092844;23;20624;-75
2023/04/01 10:53:39;;;;;;;14.03;8.87;;;18.40;74.30;;;;;;6091785;23;20169;-74
2023/04/01 10:56:44;;;;;;;13.40;8.03;;;18.50;73.60;;;;;;6089184;23;20181;-74
2023/04/01 10:59:46;;;;;;;11.33;7.47;;;18.60;72.00;;;;;;6091717;23;20193;-73
2023/04/01 11:02:51;;;;;;;13.83;7.20;;;18.70;72.50;;;;;;6091504;23;20170;-74
2023/04/01 11:06:09;;;;;;;12.33;8.17;;;18.80;72.90;;;;;;6090480;23;20224;-75
2023/04/01 11:09:15;;;;;;;13.20;8.37;;;18.80;71.90;;;;;;6091550;23;20218;-74
2023/04/01 11:12:18;;;;;;;15.47;9.00;;;18.90;71.60;;;;;;6091448;23;20481;-73
2023/04/01 11:15:35;;;;;;;14.10;8.57;;;18.90;71.00;;;;;;6092257;23;20162;-75
2023/04/01 11:18:46;;;;;;;14.83;8.57;;;18.90;71.00;;;;;;6090867;23;20162;-75
2023/04/01 11:21:56;;;;;;;13.50;7.67;;;18.90;71.30;;;;;;6091746;23;20202;-75
2023/04/01 11:25:09;;;;;;;12.70;8.00;;;18.90;71.10;;;;;;6090437;23;20532;-75
2023/04/01 11:27:54;;;;;;;14.10;7.90;;;18.90;70.90;;;;;;5972059;24;20871;-75
2023/04/01 11:30:45;;;;;;;14.50;7.40;;;18.90;70.90;;;;;;6078578;23;20176;-75
2023/04/01 11:33:20;;;;;;;11.93;6.80;;;18.90;70.80;;;;;;6091475;23;20194;-75
2023/04/01 11:36:22;;;;;;;15.40;8.00;;;18.90;70.90;;;;;;6094634;23;20161;-75
2023/04/01 11:39:02;;;;;;;15.07;7.03;;;18.90;70.80;;;;;;6093785;23;20196;-74
2023/04/01 11:41:41;;;;;;;9.57;6.43;;;18.90;70.70;;;;;;6091359;23;20650;-74
2023/04/01 11:44:18;;;;;;;12.77;6.67;;;19.00;70.50;;;;;;6091946;23;20221;-73
2023/04/01 11:47:01;;;;;;;14.00;6.53;;;19.00;70.70;;;;;;6091518;23;20162;-74
2023/04/01 11:49:41;;;;;;;12.97;7.17;;;19.00;70.80;;;;;;6093072;23;20663;-74
2023/04/01 11:52:22;;;;;;;11.30;6.40;;;19.00;71.00;;;;;;6091453;23;20637;-73
2023/04/01 11:55:11;;;;;;;9.53;5.70;;;19.00;70.70;;;;;;6092664;23;20229;-73
2023/04/01 11:58:17;;;;;;;11.37;6.60;;;19.00;70.40;;;;;;6088807;23;20383;-76
2023/04/01 12:00:59;;;;;;;10.87;5.70;;;18.90;70.50;;;;;;6095355;23;20201;-74
2023/04/01 12:03:42;;;;;;;8.20;4.77;;;18.90;70.40;;;;;;6093648;23;20459;-73
2023/04/01 12:06:17;;;;;;;8.73;5.20;;;19.00;70.40;;;;;;6095682;23;20163;-74
2023/04/01 12:08:53;;;;;;;11.87;5.07;;;19.00;70.40;;;;;;6095589;23;20650;-74
2023/04/01 12:11:28;;;;;;;11.77;6.00;;;19.00;70.20;;;;;;6093562;23;20165;-74
2023/04/01 12:14:05;;;;;;;8.60;5.00;;;19.00;69.90;;;;;;6094582;23;20607;-74
2023/04/01 12:16:55;;;;;;;12.23;6.63;;;19.10;69.80;;;;;;6092900;23;20166;-74
2023/04/01 12:19:33;;;;;;;13.33;5.30;;;19.10;69.50;;;;;;6095799;23;20166;-74
2023/04/01 12:22:27;;;;;;;7.53;4.93;;;19.10;69.20;;;;;;6094213;23;20189;-75
2023/04/01 12:25:08;;;;;;;9.67;5.27;;;19.20;69.40;;;;;;6092894;23;20174;-74
2023/04/01 12:27:44;;;;;;;9.80;5.93;;;19.20;69.10;;;;;;6095521;23;20165;-74
2023/04/01 12:30:38;;;;;;;13.80;6.15;;;19.20;69.10;;;;;;6096900;23;20394;-74
2023/04/01 12:33:31;;;;;;;15.37;5.93;;;19.20;68.80;;;;;;6090494;23;20174;-74
2023/04/01 12:36:12;;;;;;;9.93;6.13;;;19.30;69.10;;;;;;6091384;23;20170;-74
2023/04/01 12:38:50;;;;;;;9.77;6.37;;;19.30;69.30;;;;;;6095045;23;20202;-74
2023/04/01 12:41:31;;;;;;;10.53;6.97;;;19.20;70.40;;;;;;6095151;23;20242;-74
2023/04/01 12:44:24;;;;;;;12.77;7.23;;;19.20;70.00;;;;;;6095809;23;20217;-74
2023/04/01 12:47:24;;;;;;;11.20;7.33;;;19.10;70.20;;;;;;6094664;23;20170;-75
2023/04/01 12:50:17;;;;;;;12.57;7.47;;;19.10;70.50;;;;;;6093920;23;20164;-74
2023/04/01 12:53:02;;;;;;;11.40;7.10;;;19.10;71.00;;;;;;6095185;23;20521;-74
2023/04/01 12:55:38;;;;;;;15.00;8.23;;;19.10;71.30;;;;;;6094086;23;20169;-74
2023/04/01 12:58:36;;;;;;;10.77;7.00;;;19.00;71.50;;;;;;6091816;23;20193;-74
2023/04/01 13:01:30;;;;;;;13.30;7.63;;;19.00;71.80;;;;;;6094157;23;20186;-74
2023/04/01 13:04:34;;;;;;;14.87;8.47;;;19.00;71.80;;;;;;6093408;23;20169;-75
2023/04/01 13:07:28;;;;;;;15.27;8.73;;;19.00;72.30;;;;;;6093704;23;20472;-74
2023/04/01 13:10:06;;;;;;;15.10;9.07;;;18.90;72.50;;;;;;6091384;23;20632;-74
2023/04/01 13:12:51;;;;;;;15.90;9.53;;;18.90;72.80;;;;;;6093024;23;20166;-74
2023/04/01 13:15:37;;;;;;;15.37;9.30;;;18.90;73.10;;;;;;6093275;23;20158;-74
2023/04/01 13:18:23;;;;;;;19.07;10.30;;;19.00;73.20;;;;;;6094561;23;20614;-74
2023/04/01 13:21:01;;;;;;;14.20;8.40;;;19.00;73.50;;;;;;6094865;23;20166;-74
2023/04/01 13:23:45;;;;;;;11.20;7.53;;;19.00;73.50;;;;;;6093917;23;20638;-74
2023/04/01 13:26:19;;;;;;;13.37;7.30;;;19.10;73.40;;;;;;6091636;23;20240;-74
2023/04/01 13:28:54;;;;;;;11.27;6.53;;;19.10;73.20;;;;;;6095555;23;20158;-74
2023/04/01 13:31:37;;;;;;;13.50;6.73;;;19.20;73.10;;;;;;6094667;23;20232;-73